Time;durP1;ratioP1;P1;durP2;ratioP2;P2;SDS_P1;SDS_P2;PMS_P1;PMS_P2;Temp;Humidity;BMP_temperature;BMP_pressure;BME280_temperature;BME280_humidity;BME280_pressure;Samples;Min_cycle;Max_cycle;Signal;HPM_P1;HPM_P2
2023/07/11 00:00:18;;;;;;;2.88;1.63;;;;;;;;;;4999002;28;20053;-76
2023/07/11 00:02:45;;;;;;;2.50;1.60;;;;;;;;;;4961091;28;20046;-75
2023/07/11 00:05:13;;;;;;;2.05;1.83;;;;;;;;;;4996956;28;20030;-76
2023/07/11 00:07:39;;;;;;;1.80;1.60;;;;;;;;;;4993190;28;20556;-76
2023/07/11 00:10:05;;;;;;;1.02;1.02;;;;;;;;;;4995833;28;20041;-76
2023/07/11 00:12:31;;;;;;;2.08;1.60;;;;;;;;;;4980547;28;20115;-76
2023/07/11 00:14:57;;;;;;;1.50;1.13;;;;;;;;;;4985044;28;20041;-76
2023/07/11 00:17:23;;;;;;;1.58;1.48;;;;;;;;;;4994547;28;20498;-76
2023/07/11 00:19:54;;;;;;;1.65;1.55;;;;;;;;;;4994961;28;20045;-76
2023/07/11 00:22:21;;;;;;;1.30;1.20;;;;;;;;;;4979568;28;20470;-76
2023/07/11 00:24:48;;;;;;;2.08;1.20;;;;;;;;;;4993030;28;20034;-76
2023/07/11 00:27:16;;;;;;;1.88;1.33;;;;;;;;;;4993230;28;20096;-76
2023/07/11 00:29:41;;;;;;;1.20;1.10;;;;;;;;;;4967626;28;20073;-76
2023/07/11 00:32:07;;;;;;;1.48;1.00;;;;;;;;;;4998105;28;20041;-76
2023/07/11 00:34:33;;;;;;;1.50;1.40;;;;;;;;;;4996975;28;20042;-76
2023/07/11 00:36:58;;;;;;;2.10;1.20;;;;;;;;;;4980963;28;20034;-76
2023/07/11 00:39:26;;;;;;;2.78;1.60;;;;;;;;;;4996544;28;20060;-75
2023/07/11 00:41:52;;;;;;;2.17;1.52;;;;;;;;;;4995545;28;20061;-75
2023/07/11 00:44:17;;;;;;;1.50;1.40;;;;;;;;;;4985235;28;20037;-76
2023/07/11 00:46:43;;;;;;;2.15;1.73;;;;;;;;;;4998238;28;20049;-76
2023/07/11 00:49:11;;;;;;;3.10;1.85;;;;;;;;;;4996950;28;20046;-76
2023/07/11 00:51:54;;;;;;;2.97;1.67;;;;;;;;;;4993404;28;20262;-76
2023/07/11 00:54:23;;;;;;;2.40;1.48;;;;;;;;;;4989436;28;20061;-76
2023/07/11 00:56:49;;;;;;;1.70;1.48;;;;;;;;;;5008898;28;20037;-76
2023/07/11 00:59:16;;;;;;;1.73;1.63;;;;;;;;;;5003777;28;20177;-77
2023/07/11 01:01:50;;;;;;;3.45;1.58;;;;;;;;;;4999117;28;20173;-76
2023/07/11 01:04:19;;;;;;;1.10;1.00;;;;;;;;;;5000534;28;20042;-77
2023/07/11 01:06:45;;;;;;;2.15;1.38;;;;;;;;;;4989017;28;20049;-76
2023/07/11 01:09:12;;;;;;;1.40;1.30;;;;;;;;;;5004002;28;20038;-76
2023/07/11 01:12:02;;;;;;;2.65;1.50;;;;;;;;;;4995289;28;20443;-76
2023/07/11 01:14:28;;;;;;;1.65;1.40;;;;;;;;;;4980294;28;20050;-76
2023/07/11 01:16:53;;;;;;;2.10;1.48;;;;;;;;;;4992933;28;20034;-76
2023/07/11 01:19:20;;;;;;;2.08;1.70;;;;;;;;;;4984258;28;20042;-77
2023/07/11 01:21:46;;;;;;;2.53;2.10;;;;;;;;;;4994754;28;20038;-77
2023/07/11 01:24:12;;;;;;;1.88;1.30;;;;;;;;;;4998685;28;20037;-76
2023/07/11 01:26:37;;;;;;;2.58;1.42;;;;;;;;;;4984527;28;20682;-77
2023/07/11 01:29:04;;;;;;;3.47;2.10;;;;;;;;;;4999964;28;20068;-77
2023/07/11 01:31:33;;;;;;;1.92;1.40;;;;;;;;;;4998867;28;20044;-76
2023/07/11 01:34:02;;;;;;;1.92;1.02;;;;;;;;;;4987327;28;20050;-77
2023/07/11 01:36:28;;;;;;;2.17;1.23;;;;;;;;;;4979867;28;20045;-77
2023/07/11 01:38:53;;;;;;;3.22;1.70;;;;;;;;;;4997484;28;20030;-77
2023/07/11 01:41:19;;;;;;;1.38;1.27;;;;;;;;;;4994783;28;20045;-76
2023/07/11 01:43:44;;;;;;;2.25;1.10;;;;;;;;;;4977883;28;20041;-77
2023/07/11 01:46:10;;;;;;;1.77;1.52;;;;;;;;;;4980665;28;20399;-77
2023/07/11 01:48:35;;;;;;;3.15;1.58;;;;;;;;;;4994013;28;20118;-76
2023/07/11 01:51:00;;;;;;;1.73;1.45;;;;;;;;;;4997383;28;20509;-75
2023/07/11 01:53:26;;;;;;;1.85;1.70;;;;;;;;;;4997144;28;20038;-76
2023/07/11 01:55:59;;;;;;;1.83;1.60;;;;;;;;;;4996789;28;20042;-76
2023/07/11 01:58:24;;;;;;;2.55;1.67;;;;;;;;;;4980716;28;20498;-77
2023/07/11 02:00:50;;;;;;;2.22;1.75;;;;;;;;;;4971618;28;20092;-77
2023/07/11 02:03:15;;;;;;;1.90;1.70;;;;;;;;;;4997607;28;20497;-76
2023/07/11 02:05:41;;;;;;;3.35;1.60;;;;;;;;;;4995714;28;20034;-76
2023/07/11 02:08:06;;;;;;;1.30;1.17;;;;;;;;;;5000608;28;20038;-76
2023/07/11 02:10:31;;;;;;;1.30;1.20;;;;;;;;;;4995263;28;20042;-76
2023/07/11 02:12:57;;;;;;;1.65;1.20;;;;;;;;;;4995399;28;20161;-76
2023/07/11 02:15:22;;;;;;;1.63;1.50;;;;;;;;;;4987297;28;20084;-76
2023/07/11 02:17:48;;;;;;;1.20;1.10;;;;;;;;;;4967777;28;20046;-75
2023/07/11 02:20:13;;;;;;;1.52;1.20;;;;;;;;;;4995371;28;20046;-76
2023/07/11 02:22:39;;;;;;;2.97;1.40;;;;;;;;;;4995239;28;20104;-75
2023/07/11 02:25:05;;;;;;;1.70;1.60;;;;;;;;;;4979897;28;20383;-76
2023/07/11 02:27:30;;;;;;;2.03;1.50;;;;;;;;;;4995966;28;20100;-76
2023/07/11 02:29:55;;;;;;;3.63;1.45;;;;;;;;;;4985450;28;20838;-76
2023/07/11 02:32:21;;;;;;;1.30;1.20;;;;;;;;;;4993789;28;20651;-75
2023/07/11 02:34:46;;;;;;;1.10;1.00;;;;;;;;;;4979111;28;20046;-76
2023/07/11 02:37:11;;;;;;;2.47;1.60;;;;;;;;;;4995347;28;20038;-75
2023/07/11 02:39:37;;;;;;;1.30;1.20;;;;;;;;;;4996879;28;20478;-77
2023/07/11 02:42:03;;;;;;;3.80;1.35;;;;;;;;;;4991602;28;20034;-77
2023/07/11 02:44:28;;;;;;;1.65;1.33;;;;;;;;;;4996152;28;20048;-77
2023/07/11 02:46:53;;;;;;;1.60;1.50;;;;;;;;;;4994346;28;20078;-77
2023/07/11 02:49:20;;;;;;;2.00;1.40;;;;;;;;;;4979583;28;20533;-77
2023/07/11 02:51:45;;;;;;;2.60;1.73;;;;;;;;;;4994623;28;20038;-76
2023/07/11 02:54:11;;;;;;;3.03;2.05;;;;;;;;;;4979406;28;20510;-77
2023/07/11 02:56:37;;;;;;;1.60;1.50;;;;;;;;;;4989269;28;20049;-76
2023/07/11 02:59:03;;;;;;;2.42;1.52;;;;;;;;;;4999829;28;20048;-75
2023/07/11 03:01:32;;;;;;;2.28;1.30;;;;;;;;;;4999427;28;20045;-76
2023/07/11 03:03:58;;;;;;;1.45;1.35;;;;;;;;;;4999548;28;20046;-75
2023/07/11 03:06:23;;;;;;;1.63;1.30;;;;;;;;;;4998561;28;20129;-76
2023/07/11 03:08:48;;;;;;;1.52;1.38;;;;;;;;;;4998406;28;20034;-76
2023/07/11 03:11:14;;;;;;;1.50;1.40;;;;;;;;;;4988197;28;20091;-76
2023/07/11 03:13:40;;;;;;;2.08;1.50;;;;;;;;;;5001098;28;20049;-79
2023/07/11 03:16:05;;;;;;;2.28;1.33;;;;;;;;;;4999201;28;20529;-76
2023/07/11 03:18:31;;;;;;;1.80;1.33;;;;;;;;;;4999547;28;20037;-79
2023/07/11 03:20:59;;;;;;;1.95;1.52;;;;;;;;;;5000073;28;20098;-76
2023/07/11 03:23:24;;;;;;;1.92;1.50;;;;;;;;;;5000649;28;20117;-78
2023/07/11 03:25:50;;;;;;;1.50;1.40;;;;;;;;;;4988255;28;20125;-75
2023/07/11 03:28:15;;;;;;;2.58;1.80;;;;;;;;;;4997950;28;20042;-76
2023/07/11 03:30:40;;;;;;;2.65;1.40;;;;;;;;;;4998601;28;20053;-78
2023/07/11 03:33:06;;;;;;;2.47;1.33;;;;;;;;;;5001971;28;20042;-77
2023/07/11 03:35:32;;;;;;;2.05;1.40;;;;;;;;;;4999771;28;20651;-77
2023/07/11 03:37:58;;;;;;;1.75;1.27;;;;;;;;;;5000389;28;20050;-78
2023/07/11 03:40:24;;;;;;;1.65;1.50;;;;;;;;;;4996779;28;20047;-77
2023/07/11 03:42:49;;;;;;;1.73;1.63;;;;;;;;;;5002824;28;20038;-77
2023/07/11 03:45:15;;;;;;;2.05;1.33;;;;;;;;;;4979098;28;20033;-77
2023/07/11 03:47:40;;;;;;;2.05;1.10;;;;;;;;;;4996600;28;20684;-77
2023/07/11 03:50:06;;;;;;;1.45;1.35;;;;;;;;;;4988387;28;20041;-76
2023/07/11 03:52:31;;;;;;;2.17;1.40;;;;;;;;;;4993516;28;20026;-78
2023/07/11 03:54:57;;;;;;;3.38;1.50;;;;;;;;;;4982532;28;20723;-77
2023/07/11 03:57:22;;;;;;;2.08;1.70;;;;;;;;;;5004231;28;20034;-77
2023/07/11 03:59:48;;;;;;;2.03;1.70;;;;;;;;;;5004287;28;20041;-77
2023/07/11 04:02:13;;;;;;;2.42;1.90;;;;;;;;;;4986741;28;20041;-78
2023/07/11 04:04:38;;;;;;;5.80;3.08;;;;;;;;;;5003220;28;20450;-76
2023/07/11 04:07:04;;;;;;;2.78;1.90;;;;;;;;;;4993882;28;20049;-77
2023/07/11 04:09:30;;;;;;;2.97;2.08;;;;;;;;;;5004183;28;20112;-78
2023/07/11 04:11:56;;;;;;;6.50;2.63;;;;;;;;;;4987538;28;20536;-77
2023/07/11 04:14:21;;;;;;;3.13;2.15;;;;;;;;;;5003482;28;20056;-78
2023/07/11 04:16:47;;;;;;;2.80;2.03;;;;;;;;;;5001792;28;20123;-78
2023/07/11 04:19:12;;;;;;;2.45;2.05;;;;;;;;;;5003445;28;20487;-78
2023/07/11 04:21:38;;;;;;;3.95;2.45;;;;;;;;;;4993238;28;20050;-76
2023/07/11 04:24:03;;;;;;;2.00;1.73;;;;;;;;;;5000397;28;20031;-77
2023/07/11 04:26:29;;;;;;;3.05;2.38;;;;;;;;;;4997342;28;20042;-76
2023/07/11 04:28:54;;;;;;;5.90;2.30;;;;;;;;;;4998477;28;20046;-75
2023/07/11 04:31:20;;;;;;;1.83;1.73;;;;;;;;;;4998674;28;20049;-77
2023/07/11 04:33:46;;;;;;;3.00;1.80;;;;;;;;;;5002500;28;20038;-77
2023/07/11 04:36:14;;;;;;;5.32;2.35;;;;;;;;;;4990570;28;20082;-77
2023/07/11 04:38:39;;;;;;;3.60;2.00;;;;;;;;;;4989824;28;20271;-78
2023/07/11 04:41:06;;;;;;;3.85;2.30;;;;;;;;;;4995878;28;20533;-78
2023/07/11 04:43:33;;;;;;;2.88;2.28;;;;;;;;;;4995639;28;20034;-77
2023/07/11 04:46:00;;;;;;;2.75;2.08;;;;;;;;;;4991265;28;20026;-76
2023/07/11 04:48:25;;;;;;;3.97;2.33;;;;;;;;;;4991933;28;20041;-78
2023/07/11 04:51:02;;;;;;;4.20;2.65;;;;;;;;;;4995016;28;20025;-77
2023/07/11 04:53:29;;;;;;;4.45;2.38;;;;;;;;;;4990020;28;20045;-78
2023/07/11 04:55:59;;;;;;;7.80;2.50;;;;;;;;;;4990300;28;20065;-76
2023/07/11 04:58:25;;;;;;;5.07;2.53;;;;;;;;;;4992786;28;20033;-78
2023/07/11 05:00:51;;;;;;;7.38;2.10;;;;;;;;;;4994123;28;20037;-78
2023/07/11 05:03:17;;;;;;;6.50;2.50;;;;;;;;;;4988530;28;20034;-77
2023/07/11 05:05:42;;;;;;;6.40;2.30;;;;;;;;;;4986953;28;20501;-76
2023/07/11 05:08:08;;;;;;;7.00;3.60;;;;;;;;;;4990201;28;20040;-76
2023/07/11 05:10:33;;;;;;;3.78;2.65;;;;;;;;;;4985873;28;20487;-76
2023/07/11 05:12:58;;;;;;;4.90;3.15;;;;;;;;;;4990035;28;20037;-75
2023/07/11 05:15:24;;;;;;;6.43;3.60;;;;;;;;;;4985885;28;20029;-77
2023/07/11 05:17:49;;;;;;;4.43;2.75;;;;;;;;;;4987057;28;20438;-75
2023/07/11 05:20:14;;;;;;;7.97;4.40;;;;;;;;;;4987543;28;20411;-75
2023/07/11 05:22:40;;;;;;;8.00;5.63;;;;;;;;;;4985417;28;20027;-75
2023/07/11 05:25:06;;;;;;;10.13;5.30;;;;;;;;;;4987919;28;20040;-76
2023/07/11 05:27:32;;;;;;;7.63;5.60;;;;;;;;;;4990029;28;20026;-76
2023/07/11 05:29:57;;;;;;;6.35;4.40;;;;;;;;;;4986353;28;20069;-77
2023/07/11 05:32:22;;;;;;;5.70;4.68;;;;;;;;;;4983231;28;20026;-76
2023/07/11 05:34:48;;;;;;;8.77;5.72;;;;;;;;;;4982788;28;20026;-76
2023/07/11 05:37:13;;;;;;;8.57;6.38;;;;;;;;;;4985493;28;20592;-76
2023/07/11 05:39:39;;;;;;;6.30;5.47;;;;;;;;;;4986752;28;20026;-75
2023/07/11 05:42:04;;;;;;;9.02;6.07;;;;;;;;;;4987039;28;20503;-77
2023/07/11 05:44:30;;;;;;;9.57;5.38;;;;;;;;;;4987583;28;20102;-77
2023/07/11 05:46:55;;;;;;;8.35;5.47;;;;;;;;;;4988738;28;20046;-76
2023/07/11 05:49:21;;;;;;;7.45;5.07;;;;;;;;;;4988575;28;20046;-77
2023/07/11 05:51:46;;;;;;;9.18;4.70;;;;;;;;;;4987732;28;20027;-77
2023/07/11 05:54:12;;;;;;;6.63;5.10;;;;;;;;;;4989744;28;20030;-77
2023/07/11 05:56:37;;;;;;;7.80;5.20;;;;;;;;;;4989166;28;20026;-77
2023/07/11 05:59:03;;;;;;;6.32;4.43;;;;;;;;;;4988161;28;20026;-76
2023/07/11 06:01:30;;;;;;;8.32;5.00;;;;;;;;;;4988639;28;20038;-77
2023/07/11 06:04:14;;;;;;;5.53;4.57;;;;;;;;;;4985836;28;20038;-77
2023/07/11 06:06:43;;;;;;;7.50;5.18;;;;;;;;;;4987776;28;20069;-75
2023/07/11 06:09:10;;;;;;;7.82;5.43;;;;;;;;;;4987763;28;20038;-77
2023/07/11 06:11:36;;;;;;;6.10;4.88;;;;;;;;;;4987349;28;20499;-75
2023/07/11 06:14:01;;;;;;;6.65;4.65;;;;;;;;;;4987974;28;20033;-76
2023/07/11 06:16:27;;;;;;;5.60;4.68;;;;;;;;;;4988257;28;20410;-77
2023/07/11 06:18:53;;;;;;;5.68;4.97;;;;;;;;;;4986694;28;20026;-75
2023/07/11 06:21:18;;;;;;;4.70;3.45;;;;;;;;;;4985801;28;20030;-75
2023/07/11 06:23:44;;;;;;;7.38;4.63;;;;;;;;;;4988391;28;20080;-77
2023/07/11 06:26:10;;;;;;;6.43;4.40;;;;;;;;;;4987171;28;20022;-77
2023/07/11 06:28:35;;;;;;;7.53;5.15;;;;;;;;;;4986841;28;20435;-77
2023/07/11 06:31:01;;;;;;;7.93;5.05;;;;;;;;;;4984098;28;20034;-76
2023/07/11 06:33:29;;;;;;;9.63;5.35;;;;;;;;;;4989160;28;20077;-76
2023/07/11 06:35:55;;;;;;;7.10;4.93;;;;;;;;;;4970221;28;20046;-75
2023/07/11 06:38:20;;;;;;;6.65;4.60;;;;;;;;;;4983349;28;20383;-76
2023/07/11 06:40:51;;;;;;;6.32;4.97;;;;;;;;;;4990225;28;20073;-75
2023/07/11 06:43:17;;;;;;;7.18;4.65;;;;;;;;;;4988156;28;20625;-75
2023/07/11 06:45:47;;;;;;;7.75;4.68;;;;;;;;;;4990079;28;20065;-75
2023/07/11 06:48:17;;;;;;;5.55;4.10;;;;;;;;;;4988508;28;20475;-76
2023/07/11 06:50:46;;;;;;;8.30;4.68;;;;;;;;;;4989217;28;20030;-75
2023/07/11 06:53:12;;;;;;;6.75;4.45;;;;;;;;;;4989288;28;20026;-76
2023/07/11 06:55:43;;;;;;;4.20;2.60;;;;;;;;;;4990278;28;20033;-75
2023/07/11 06:58:09;;;;;;;5.82;4.10;;;;;;;;;;4988315;28;20050;-76
2023/07/11 07:00:35;;;;;;;6.47;3.97;;;;;;;;;;4989166;28;20522;-77
2023/07/11 07:03:00;;;;;;;7.05;4.18;;;;;;;;;;4984849;28;20030;-76
2023/07/11 07:05:25;;;;;;;3.22;2.35;;;;;;;;;;4986594;28;20034;-76
2023/07/11 07:07:51;;;;;;;5.65;3.97;;;;;;;;;;4986197;28;20081;-77
2023/07/11 07:10:16;;;;;;;5.53;3.78;;;;;;;;;;4987860;28;20473;-75
2023/07/11 07:12:41;;;;;;;8.43;3.97;;;;;;;;;;4985269;28;20019;-76
2023/07/11 07:15:07;;;;;;;2.08;1.88;;;;;;;;;;4986446;28;20025;-76
2023/07/11 07:17:33;;;;;;;7.40;4.38;;;;;;;;;;4986191;28;20037;-76
2023/07/11 07:19:58;;;;;;;7.13;3.83;;;;;;;;;;4986651;28;20026;-77
2023/07/11 07:22:23;;;;;;;5.63;3.40;;;;;;;;;;4984924;28;20382;-75
2023/07/11 07:24:49;;;;;;;7.70;4.40;;;;;;;;;;4986071;28;20062;-77
2023/07/11 07:27:17;;;;;;;2.40;2.10;;;;;;;;;;4985511;28;20030;-76
2023/07/11 07:29:42;;;;;;;4.75;3.70;;;;;;;;;;4986763;28;20372;-76
2023/07/11 07:32:08;;;;;;;5.22;3.47;;;;;;;;;;4983996;28;20037;-77
2023/07/11 07:34:33;;;;;;;4.25;3.53;;;;;;;;;;4986677;28;20113;-77
2023/07/11 07:36:59;;;;;;;5.90;3.72;;;;;;;;;;4987006;28;20058;-76
2023/07/11 07:39:24;;;;;;;4.47;3.40;;;;;;;;;;4983799;28;20018;-77
2023/07/11 07:41:49;;;;;;;7.22;4.00;;;;;;;;;;4986170;28;20397;-76
2023/07/11 07:44:15;;;;;;;4.32;2.95;;;;;;;;;;4991525;28;20547;-76
2023/07/11 07:46:40;;;;;;;5.38;3.50;;;;;;;;;;4992045;28;20597;-77
2023/07/11 07:49:06;;;;;;;4.75;3.22;;;;;;;;;;4991296;28;20039;-76
2023/07/11 07:51:31;;;;;;;4.53;3.55;;;;;;;;;;4992151;28;20121;-78
2023/07/11 07:53:56;;;;;;;4.55;2.85;;;;;;;;;;4992391;28;20030;-76
2023/07/11 07:56:23;;;;;;;6.10;3.20;;;;;;;;;;4992187;28;20109;-77
2023/07/11 07:58:49;;;;;;;5.30;3.63;;;;;;;;;;4992590;28;20030;-78
2023/07/11 08:01:18;;;;;;;3.00;2.13;;;;;;;;;;4989035;28;20065;-77
2023/07/11 08:03:44;;;;;;;3.38;2.60;;;;;;;;;;4990613;28;20037;-77
2023/07/11 08:06:11;;;;;;;3.78;3.25;;;;;;;;;;4990825;28;20029;-77
2023/07/11 08:08:36;;;;;;;5.05;3.38;;;;;;;;;;4992555;28;20041;-77
2023/07/11 08:11:03;;;;;;;2.92;2.50;;;;;;;;;;4991904;28;20030;-75
2023/07/11 08:13:29;;;;;;;4.95;3.08;;;;;;;;;;4991506;28;20064;-77
2023/07/11 08:15:55;;;;;;;3.53;3.22;;;;;;;;;;4989706;28;20029;-75
2023/07/11 08:18:20;;;;;;;2.80;2.42;;;;;;;;;;4989328;28;20467;-77
2023/07/11 08:20:46;;;;;;;6.22;3.50;;;;;;;;;;4990743;28;20031;-76
2023/07/11 08:23:11;;;;;;;5.40;2.97;;;;;;;;;;4990618;28;20022;-77
2023/07/11 08:25:36;;;;;;;5.00;3.20;;;;;;;;;;4990751;28;20455;-76
2023/07/11 08:28:04;;;;;;;3.60;3.10;;;;;;;;;;4991230;28;20061;-78
2023/07/11 08:30:33;;;;;;;4.95;3.20;;;;;;;;;;4992352;28;20026;-77
2023/07/11 08:32:59;;;;;;;3.30;2.53;;;;;;;;;;4992532;28;20049;-78
2023/07/11 08:35:24;;;;;;;4.65;3.65;;;;;;;;;;4991267;28;20030;-77
2023/07/11 08:37:49;;;;;;;4.70;2.90;;;;;;;;;;4990884;28;20060;-76
2023/07/11 08:40:21;;;;;;;5.18;3.30;;;;;;;;;;4991306;28;20634;-78
2023/07/11 08:42:47;;;;;;;3.92;3.40;;;;;;;;;;4988478;28;20069;-77
2023/07/11 08:45:31;;;;;;;4.55;3.50;;;;;;;;;;4979732;28;20132;-76
2023/07/11 08:48:07;;;;;;;5.47;3.58;;;;;;;;;;4992908;28;20033;-76
2023/07/11 08:50:40;;;;;;;3.20;2.67;;;;;;;;;;4991768;28;20026;-76
2023/07/11 08:53:13;;;;;;;4.20;2.67;;;;;;;;;;4991281;28;20479;-76
2023/07/11 08:55:43;;;;;;;3.97;3.47;;;;;;;;;;4991509;28;20041;-77
2023/07/11 08:58:17;;;;;;;4.45;3.28;;;;;;;;;;4989280;28;20027;-78
2023/07/11 09:00:46;;;;;;;5.13;3.50;;;;;;;;;;4992998;28;20022;-77
2023/07/11 09:03:22;;;;;;;4.70;3.80;;;;;;;;;;4993236;28;20495;-76
2023/07/11 09:06:01;;;;;;;4.32;3.38;;;;;;;;;;4988085;28;20038;-76
2023/07/11 09:08:27;;;;;;;5.45;4.10;;;;;;;;;;4984050;28;20034;-74
2023/07/11 09:10:56;;;;;;;4.97;4.10;;;;;;;;;;4993411;28;20030;-76
2023/07/11 09:13:47;;;;;;;4.60;3.60;;;;;;;;;;4993214;28;20022;-77
2023/07/11 09:16:21;;;;;;;4.55;3.30;;;;;;;;;;4993862;28;20033;-77
2023/07/11 09:18:56;;;;;;;4.57;3.78;;;;;;;;;;4992826;28;20736;-77
2023/07/11 09:21:38;;;;;;;4.75;4.10;;;;;;;;;;4988978;28;20454;-75
2023/07/11 09:24:09;;;;;;;4.45;4.05;;;;;;;;;;4991502;28;20557;-75
2023/07/11 09:26:44;;;;;;;5.07;3.90;;;;;;;;;;4992664;28;20090;-77
2023/07/11 09:29:10;;;;;;;4.32;3.42;;;;;;;;;;4992153;28;20085;-78
2023/07/11 09:31:41;;;;;;;4.68;4.00;;;;;;;;;;4970519;28;20034;-77
2023/07/11 09:34:24;;;;;;;4.70;4.13;;;;;;;;;;4991954;28;20037;-76
2023/07/11 09:36:51;;;;;;;6.50;4.47;;;;;;;;;;4992188;28;20049;-76
2023/07/11 09:39:42;;;;;;;5.40;4.90;;;;;;;;;;4990551;28;20029;-76
2023/07/11 09:42:33;;;;;;;5.20;4.00;;;;;;;;;;4990963;28;20026;-77
2023/07/11 09:44:59;;;;;;;7.70;4.43;;;;;;;;;;4991646;28;20423;-76
2023/07/11 09:47:25;;;;;;;6.03;4.57;;;;;;;;;;4975635;28;20703;-76
2023/07/11 09:49:51;;;;;;;5.15;4.60;;;;;;;;;;4991358;28;20065;-77
2023/07/11 09:52:26;;;;;;;5.25;4.80;;;;;;;;;;4991462;28;20040;-78
2023/07/11 09:54:52;;;;;;;5.13;4.63;;;;;;;;;;4992911;28;20037;-77
2023/07/11 09:57:18;;;;;;;4.40;3.97;;;;;;;;;;4990076;28;20057;-78
2023/07/11 09:59:55;;;;;;;6.93;4.78;;;;;;;;;;4991976;28;20014;-77
2023/07/11 10:02:22;;;;;;;4.70;3.63;;;;;;;;;;4991766;28;20065;-78
2023/07/11 10:04:49;;;;;;;4.53;3.90;;;;;;;;;;4990198;28;20025;-76
2023/07/11 10:07:15;;;;;;;6.47;4.47;;;;;;;;;;4991111;28;20585;-77
2023/07/11 10:09:48;;;;;;;5.00;4.50;;;;;;;;;;4991330;28;20425;-77
2023/07/11 10:12:22;;;;;;;5.32;4.80;;;;;;;;;;4991645;28;20539;-75
2023/07/11 10:14:54;;;;;;;6.47;4.90;;;;;;;;;;4991737;28;20048;-77
2023/07/11 10:17:25;;;;;;;4.88;3.80;;;;;;;;;;4990797;28;20116;-75
2023/07/11 10:19:55;;;;;;;6.00;5.38;;;;;;;;;;4992574;28;20392;-76
2023/07/11 10:22:21;;;;;;;;;;;;;;;;;;4976317;28;20045;-75
2023/07/11 10:24:48;;;;;;;4.47;4.05;;;;;;;;;;4990429;28;19917;-76
2023/07/11 10:27:29;;;;;;;5.82;4.68;;;;;;;;;;4987792;28;20034;-76
2023/07/11 10:29:57;;;;;;;3.75;3.35;;;;;;;;;;4989358;28;20025;-74
2023/07/11 10:32:41;;;;;;;6.65;4.95;;;;;;;;;;4986688;28;20655;-76
2023/07/11 10:35:15;;;;;;;6.10;5.25;;;;;;;;;;4987626;28;20458;-78
2023/07/11 10:37:49;;;;;;;6.97;5.00;;;;;;;;;;4987633;28;20050;-77
2023/07/11 10:40:24;;;;;;;5.25;4.75;;;;;;;;;;4989918;28;20113;-75
2023/07/11 10:43:10;;;;;;;3.67;3.38;;;;;;;;;;4990783;28;20178;-77
2023/07/11 10:45:40;;;;;;;7.07;4.63;;;;;;;;;;4989492;28;20042;-76
2023/07/11 10:48:34;;;;;;;5.80;5.20;;;;;;;;;;4990997;28;20026;-77
2023/07/11 10:51:05;;;;;;;8.05;5.93;;;;;;;;;;4990819;28;20026;-75
2023/07/11 10:53:34;;;;;;;6.15;5.55;;;;;;;;;;4991419;28;20022;-77
2023/07/11 10:56:34;;;;;;;6.78;4.90;;;;;;;;;;4992406;28;20034;-77
2023/07/11 10:59:00;;;;;;;11.00;6.65;;;;;;;;;;4991166;28;20065;-76
2023/07/11 11:01:31;;;;;;;4.40;4.00;;;;;;;;;;4991248;28;20038;-77
2023/07/11 11:04:24;;;;;;;5.30;4.80;;;;;;;;;;4990524;28;20041;-78
2023/07/11 11:07:01;;;;;;;6.13;5.53;;;;;;;;;;4985621;28;20022;-77
2023/07/11 11:09:39;;;;;;;8.98;7.03;;;;;;;;;;4984683;28;20034;-77
2023/07/11 11:12:13;;;;;;;7.32;6.07;;;;;;;;;;4985575;28;20082;-77
2023/07/11 11:15:17;;;;;;;7.15;6.30;;;;;;;;;;4986467;28;20118;-77
2023/07/11 11:17:46;;;;;;;6.32;5.50;;;;;;;;;;4988234;28;20030;-78
2023/07/11 11:20:23;;;;;;;7.70;6.60;;;;;;;;;;4988237;28;20022;-77
2023/07/11 11:23:05;;;;;;;5.53;5.03;;;;;;;;;;4987924;28;20034;-78
2023/07/11 11:25:46;;;;;;;8.13;7.20;;;;;;;;;;4989829;28;20030;-78
2023/07/11 11:28:40;;;;;;;10.23;7.22;;;;;;;;;;4989177;28;20030;-77
2023/07/11 11:31:27;;;;;;;7.15;5.90;;;;;;;;;;4988115;28;20057;-78
2023/07/11 11:34:04;;;;;;;7.95;6.20;;;;;;;;;;4984956;28;20127;-77
2023/07/11 11:36:33;;;;;;;9.95;7.70;;;;;;;;;;4986962;28;20041;-77
2023/07/11 11:39:11;;;;;;;9.63;7.35;;;;;;;;;;4989135;28;20026;-77
2023/07/11 11:41:47;;;;;;;8.20;7.25;;;;;;;;;;4987759;28;20112;-77
2023/07/11 11:44:22;;;;;;;5.85;5.35;;;;;;;;;;4988685;28;20038;-78
2023/07/11 11:46:49;;;;;;;8.05;7.25;;;;;;;;;;4987883;28;20030;-77
2023/07/11 11:49:16;;;;;;;7.85;7.05;;;;;;;;;;4989206;28;20037;-77
2023/07/11 11:51:44;;;;;;;8.00;7.10;;;;;;;;;;4989422;28;20045;-77
2023/07/11 11:54:12;;;;;;;7.80;6.90;;;;;;;;;;4988659;28;20361;-77
2023/07/11 11:56:44;;;;;;;9.32;6.60;;;;;;;;;;4989386;28;20026;-77
2023/07/11 11:59:26;;;;;;;7.30;6.47;;;;;;;;;;4988906;28;20026;-78
2023/07/11 12:01:54;;;;;;;8.43;6.80;;;;;;;;;;4989229;28;20026;-77
2023/07/11 12:04:35;;;;;;;8.13;7.32;;;;;;;;;;4988714;28;20041;-77
2023/07/11 12:07:18;;;;;;;8.02;6.35;;;;;;;;;;4985684;28;20034;-77
2023/07/11 12:09:53;;;;;;;8.35;7.32;;;;;;;;;;4987236;28;20045;-77
2023/07/11 12:12:46;;;;;;;10.60;7.68;;;;;;;;;;4986227;28;20062;-78
2023/07/11 12:15:11;;;;;;;8.73;7.05;;;;;;;;;;4975699;28;20523;-77
2023/07/11 12:17:39;;;;;;;8.00;6.60;;;;;;;;;;4989005;28;20041;-77
2023/07/11 12:20:08;;;;;;;7.80;6.80;;;;;;;;;;4987690;28;20045;-78
2023/07/11 12:22:36;;;;;;;8.43;7.32;;;;;;;;;;4988236;28;20399;-77
2023/07/11 12:25:05;;;;;;;8.18;7.38;;;;;;;;;;4987052;28;20026;-77
2023/07/11 12:27:30;;;;;;;7.93;7.13;;;;;;;;;;4983663;28;20030;-78
2023/07/11 12:29:56;;;;;;;8.00;7.20;;;;;;;;;;4988679;28;20049;-77
2023/07/11 12:32:31;;;;;;;8.27;7.07;;;;;;;;;;4989112;28;20053;-77
2023/07/11 12:35:08;;;;;;;7.50;6.15;;;;;;;;;;4986092;28;20372;-77
2023/07/11 12:37:50;;;;;;;7.22;6.38;;;;;;;;;;4988144;28;20029;-78
2023/07/11 12:40:45;;;;;;;7.05;5.65;;;;;;;;;;4987959;28;20026;-78
2023/07/11 12:43:30;;;;;;;6.28;5.68;;;;;;;;;;4984838;28;20038;-77
2023/07/11 12:46:06;;;;;;;7.05;6.13;;;;;;;;;;4987559;28;20053;-77
2023/07/11 12:48:36;;;;;;;7.13;6.30;;;;;;;;;;4988157;28;20029;-77
2023/07/11 12:51:06;;;;;;;8.05;6.18;;;;;;;;;;4987848;28;20092;-77
2023/07/11 12:53:37;;;;;;;8.48;6.40;;;;;;;;;;4988738;28;20018;-78
2023/07/11 12:56:02;;;;;;;7.68;6.70;;;;;;;;;;4986790;28;20022;-77
2023/07/11 12:58:30;;;;;;;7.90;6.43;;;;;;;;;;4987602;28;20030;-78
2023/07/11 13:00:58;;;;;;;6.65;5.72;;;;;;;;;;4988169;28;20487;-77
2023/07/11 13:03:30;;;;;;;6.55;5.82;;;;;;;;;;4988408;28;20112;-77
2023/07/11 13:06:02;;;;;;;7.47;6.13;;;;;;;;;;4987328;28;20085;-78
2023/07/11 13:08:35;;;;;;;6.60;5.60;;;;;;;;;;4985671;28;20038;-77
2023/07/11 13:11:04;;;;;;;6.43;5.20;;;;;;;;;;4985444;28;20019;-77
2023/07/11 13:13:31;;;;;;;7.47;6.13;;;;;;;;;;4986945;28;20018;-77
2023/07/11 13:16:03;;;;;;;8.02;5.75;;;;;;;;;;4985396;28;20142;-78
2023/07/11 13:18:44;;;;;;;5.90;5.30;;;;;;;;;;4969158;28;20026;-77
2023/07/11 13:21:10;;;;;;;6.18;5.53;;;;;;;;;;4984536;28;20017;-78
2023/07/11 13:23:38;;;;;;;6.10;5.50;;;;;;;;;;4982142;28;20057;-78
2023/07/11 13:26:19;;;;;;;5.80;5.30;;;;;;;;;;4986018;28;20018;-77
2023/07/11 13:29:01;;;;;;;6.60;5.32;;;;;;;;;;4982931;28;20030;-77
2023/07/11 13:31:30;;;;;;;6.53;5.88;;;;;;;;;;4985496;28;20030;-78
2023/07/11 13:34:01;;;;;;;6.45;5.40;;;;;;;;;;4986268;28;20037;-78
2023/07/11 13:36:31;;;;;;;5.57;5.07;;;;;;;;;;4985832;28;20037;-77
2023/07/11 13:39:12;;;;;;;6.28;5.10;;;;;;;;;;4984943;28;20468;-77
2023/07/11 13:41:41;;;;;;;6.50;5.50;;;;;;;;;;4985671;28;20037;-78
2023/07/11 13:44:15;;;;;;;6.63;5.93;;;;;;;;;;4973680;28;20030;-78
2023/07/11 13:46:42;;;;;;;5.25;4.75;;;;;;;;;;4980838;28;20034;-77
2023/07/11 13:49:15;;;;;;;6.32;5.50;;;;;;;;;;4984259;28;20438;-77
2023/07/11 13:51:40;;;;;;;6.68;5.88;;;;;;;;;;4986476;28;20049;-78
2023/07/11 13:54:31;;;;;;;5.85;5.28;;;;;;;;;;4984898;28;20690;-77
2023/07/11 13:56:56;;;;;;;6.60;5.07;;;;;;;;;;4983393;28;20065;-77
2023/07/11 13:59:22;;;;;;;5.35;4.85;;;;;;;;;;4983650;28;20380;-77
2023/07/11 14:01:47;;;;;;;7.03;5.30;;;;;;;;;;4983908;28;20553;-78
2023/07/11 14:04:22;;;;;;;5.10;4.60;;;;;;;;;;4984033;28;20088;-78
2023/07/11 14:06:47;;;;;;;6.13;5.60;;;;;;;;;;4981218;28;20763;-77
2023/07/11 14:09:13;;;;;;;4.50;4.10;;;;;;;;;;4984401;28;20129;-77
2023/07/11 14:11:43;;;;;;;6.68;5.30;;;;;;;;;;4985191;28;20030;-77
2023/07/11 14:14:19;;;;;;;5.88;5.38;;;;;;;;;;4983087;28;20384;-77
2023/07/11 14:16:45;;;;;;;6.45;5.80;;;;;;;;;;4979555;28;20533;-78
2023/07/11 14:19:37;;;;;;;5.60;4.95;;;;;;;;;;4984807;28;20061;-78
2023/07/11 14:22:24;;;;;;;5.57;5.00;;;;;;;;;;4981298;28;20390;-77
2023/07/11 14:24:51;;;;;;;5.78;5.20;;;;;;;;;;4979561;28;20133;-77
2023/07/11 14:27:17;;;;;;;5.43;4.75;;;;;;;;;;4983780;28;20025;-78
2023/07/11 14:29:42;;;;;;;6.43;5.32;;;;;;;;;;4984098;28;20022;-78
2023/07/11 14:32:13;;;;;;;5.60;5.10;;;;;;;;;;4981902;28;20502;-78
2023/07/11 14:34:40;;;;;;;6.40;5.80;;;;;;;;;;4983860;28;20027;-77
2023/07/11 14:37:13;;;;;;;6.55;5.95;;;;;;;;;;4983059;28;20117;-77
2023/07/11 14:39:38;;;;;;;5.93;5.43;;;;;;;;;;4982380;28;20022;-77
2023/07/11 14:42:19;;;;;;;6.25;5.20;;;;;;;;;;4983651;28;20026;-77
2023/07/11 14:44:45;;;;;;;5.68;5.20;;;;;;;;;;4981556;28;20031;-77
2023/07/11 14:47:10;;;;;;;5.78;5.28;;;;;;;;;;4983078;28;20533;-77
2023/07/11 14:49:36;;;;;;;6.10;5.57;;;;;;;;;;4983522;28;20743;-77
2023/07/11 14:52:01;;;;;;;6.10;5.50;;;;;;;;;;4987317;28;20034;-77
2023/07/11 14:54:29;;;;;;;6.43;5.72;;;;;;;;;;4987796;28;20058;-78